Time;durP1;ratioP1;P1;durP2;ratioP2;P2;SDS_P1;SDS_P2;PMS_P1;PMS_P2;Temp;Humidity;BMP_temperature;BMP_pressure;BME280_temperature;BME280_humidity;BME280_pressure;Samples;Min_cycle;Max_cycle;Signal;HPM_P1;HPM_P2
2024/01/30 00:01:41;;;;;;;21.88;19.55;;;6.60;99.90;;;;;;5058410;28;20043;-76
2024/01/30 00:04:07;;;;;;;22.40;20.00;;;6.50;99.90;;;;;;5058141;28;20127;-76
2024/01/30 00:06:32;;;;;;;21.58;18.40;;;6.60;99.90;;;;;;5081808;28;20131;-76
2024/01/30 00:08:58;;;;;;;23.55;20.30;;;6.50;99.90;;;;;;5065516;28;20044;-76
2024/01/30 00:11:28;;;;;;;21.33;19.08;;;6.50;99.90;;;;;;5056488;28;20044;-76
2024/01/30 00:13:54;;;;;;;20.27;18.13;;;6.50;99.90;;;;;;5071958;28;20491;-76
2024/01/30 00:16:24;;;;;;;22.00;19.67;;;6.50;99.90;;;;;;5073570;28;20068;-76
2024/01/30 00:18:51;;;;;;;21.52;19.23;;;6.50;99.90;;;;;;5061466;28;20333;-76
2024/01/30 00:21:16;;;;;;;23.85;19.75;;;6.50;99.90;;;;;;5053063;28;20115;-76
2024/01/30 00:23:42;;;;;;;23.10;19.77;;;6.50;99.90;;;;;;5076526;28;20101;-76
2024/01/30 00:26:07;;;;;;;24.05;20.02;;;6.40;99.90;;;;;;5077543;28;20143;-75
2024/01/30 00:28:33;;;;;;;23.73;19.75;;;6.60;99.90;;;;;;5061388;28;20040;-75
2024/01/30 00:30:59;;;;;;;24.15;19.70;;;6.50;99.90;;;;;;5073401;28;20044;-76
2024/01/30 00:33:24;;;;;;;21.42;18.40;;;6.50;99.90;;;;;;5063624;28;20475;-76
2024/01/30 00:35:50;;;;;;;25.00;19.80;;;6.50;99.90;;;;;;5060962;28;20541;-75
2024/01/30 00:38:15;;;;;;;22.80;20.23;;;6.50;99.90;;;;;;5058677;28;20135;-75
2024/01/30 00:40:41;;;;;;;25.88;22.08;;;6.60;99.90;;;;;;5065411;28;20131;-76
2024/01/30 00:43:07;;;;;;;26.38;22.52;;;6.60;99.90;;;;;;5058411;28;20075;-75
2024/01/30 00:45:32;;;;;;;28.73;22.83;;;6.60;99.90;;;;;;5087944;28;20047;-75
2024/01/30 00:47:58;;;;;;;31.38;22.90;;;6.60;99.90;;;;;;5083035;28;20044;-76
2024/01/30 00:50:24;;;;;;;25.33;20.33;;;6.60;99.90;;;;;;5077653;28;20086;-76
2024/01/30 00:52:49;;;;;;;21.45;18.83;;;6.60;99.90;;;;;;5081115;28;20489;-76
2024/01/30 00:55:15;;;;;;;20.67;17.92;;;6.60;99.90;;;;;;5065644;28;20055;-75
2024/01/30 00:57:41;;;;;;;21.17;17.90;;;6.60;99.90;;;;;;5069782;28;20134;-76
2024/01/30 01:00:08;;;;;;;24.05;18.85;;;6.60;99.90;;;;;;5058010;28;20127;-76
2024/01/30 01:02:35;;;;;;;20.92;17.98;;;6.60;99.90;;;;;;5060219;28;20751;-76
2024/01/30 01:05:01;;;;;;;21.37;18.23;;;6.50;99.90;;;;;;5079364;28;20414;-76
2024/01/30 01:07:27;;;;;;;20.65;18.33;;;6.60;99.90;;;;;;5078494;28;20048;-75
2024/01/30 01:09:52;;;;;;;23.10;19.25;;;6.60;99.90;;;;;;5056251;28;20054;-75
2024/01/30 01:12:18;;;;;;;20.80;18.60;;;6.60;99.90;;;;;;5062044;28;20043;-76
2024/01/30 01:14:44;;;;;;;20.95;18.50;;;6.60;99.90;;;;;;5082015;28;20044;-76
2024/01/30 01:17:09;;;;;;;22.23;19.85;;;6.60;99.90;;;;;;5061473;28;20032;-76
2024/01/30 01:19:35;;;;;;;23.73;18.83;;;6.60;99.90;;;;;;5082549;28;20096;-76
2024/01/30 01:22:01;;;;;;;21.20;19.00;;;6.60;99.90;;;;;;5073195;28;20043;-76
2024/01/30 01:24:26;;;;;;;22.23;19.48;;;6.60;99.90;;;;;;5074843;28;20479;-76
2024/01/30 01:26:52;;;;;;;21.75;19.50;;;6.60;99.90;;;;;;5077657;28;20044;-76
2024/01/30 01:29:17;;;;;;;21.75;19.45;;;6.60;99.90;;;;;;5081548;28;20033;-76
2024/01/30 01:31:43;;;;;;;23.17;19.85;;;6.60;99.90;;;;;;5082912;28;20460;-75
2024/01/30 01:34:12;;;;;;;20.88;18.67;;;6.60;99.90;;;;;;5082572;28;20041;-76
2024/01/30 01:36:39;;;;;;;22.60;19.50;;;6.60;99.90;;;;;;5078841;28;20140;-75
2024/01/30 01:39:05;;;;;;;22.70;18.73;;;6.60;99.90;;;;;;5073896;28;20044;-76
2024/01/30 01:41:34;;;;;;;23.55;19.95;;;6.60;99.90;;;;;;5062494;28;20126;-75
2024/01/30 01:44:00;;;;;;;23.35;20.65;;;6.60;99.90;;;;;;5076094;28;20075;-75
2024/01/30 01:46:33;;;;;;;23.75;21.33;;;6.70;99.90;;;;;;5063910;28;20048;-76
2024/01/30 01:48:59;;;;;;;25.48;22.90;;;6.70;99.90;;;;;;5065665;28;20052;-76
2024/01/30 01:51:27;;;;;;;25.73;23.07;;;6.70;99.90;;;;;;5082922;28;20608;-76
2024/01/30 01:53:55;;;;;;;25.90;23.17;;;6.70;99.90;;;;;;5064896;28;20046;-76
2024/01/30 01:56:22;;;;;;;21.90;13.63;;;6.70;99.90;;;;;;5067231;28;20043;-76
2024/01/30 01:58:49;;;;;;;24.92;22.25;;;6.70;99.90;;;;;;5068150;28;20040;-76
2024/01/30 02:01:18;;;;;;;23.85;21.30;;;6.70;99.90;;;;;;5062712;28;20149;-76
2024/01/30 02:03:45;;;;;;;23.42;20.92;;;6.70;99.90;;;;;;5080793;28;20075;-76
2024/01/30 02:06:11;;;;;;;23.60;20.55;;;6.70;99.90;;;;;;5087550;28;20086;-75
2024/01/30 02:08:38;;;;;;;22.77;20.38;;;6.80;99.90;;;;;;5082317;28;20140;-75
2024/01/30 02:11:04;;;;;;;24.90;22.20;;;6.70;99.90;;;;;;5089180;28;20044;-76
2024/01/30 02:13:29;;;;;;;26.98;24.08;;;6.70;99.90;;;;;;5083573;28;20298;-76
2024/01/30 02:15:55;;;;;;;32.25;25.92;;;6.70;99.90;;;;;;5068148;28;20502;-76
2024/01/30 02:18:23;;;;;;;34.17;29.20;;;6.80;99.90;;;;;;5083908;28;20043;-76
2024/01/30 02:20:53;;;;;;;40.15;31.58;;;6.70;99.90;;;;;;5061357;28;20084;-76
2024/01/30 02:23:20;;;;;;;42.97;33.28;;;6.80;99.90;;;;;;5066377;28;20072;-76
2024/01/30 02:25:46;;;;;;;49.55;35.20;;;6.80;99.90;;;;;;5062683;28;20043;-76
2024/01/30 02:28:15;;;;;;;48.60;35.63;;;6.80;99.90;;;;;;5065521;28;20044;-76
2024/01/30 02:30:43;;;;;;;47.90;35.25;;;6.80;99.90;;;;;;5062026;28;20044;-75
2024/01/30 02:33:08;;;;;;;;;;;6.80;99.90;;;;;;5081297;28;20644;-76
2024/01/30 02:35:35;;;;;;;35.45;17.30;;;6.80;99.90;;;;;;5081380;28;19916;-76
2024/01/30 02:38:00;;;;;;;36.75;30.10;;;6.70;99.90;;;;;;5061767;28;20044;-76
2024/01/30 02:40:26;;;;;;;33.70;27.63;;;6.70;99.90;;;;;;5060745;28;20396;-76
2024/01/30 02:42:52;;;;;;;26.98;24.08;;;6.80;99.90;;;;;;5059715;28;20535;-76
2024/01/30 02:45:17;;;;;;;26.42;23.23;;;6.80;99.90;;;;;;5085263;28;20078;-76
2024/01/30 02:47:43;;;;;;;25.80;23.10;;;6.70;99.90;;;;;;5067960;28;20036;-76
2024/01/30 02:50:09;;;;;;;25.85;22.50;;;6.80;99.90;;;;;;5065955;28;20051;-76
2024/01/30 02:52:35;;;;;;;22.48;20.15;;;6.80;99.90;;;;;;5080700;28;20089;-76
2024/01/30 02:55:01;;;;;;;24.48;20.88;;;6.80;99.90;;;;;;5058811;28;20051;-77
2024/01/30 02:57:28;;;;;;;22.25;19.80;;;6.80;99.90;;;;;;5090126;28;20040;-76
2024/01/30 02:59:54;;;;;;;22.07;19.67;;;6.80;99.90;;;;;;5081912;28;20620;-76
2024/01/30 03:02:19;;;;;;;21.83;18.90;;;6.80;99.90;;;;;;5059259;28;20291;-76
2024/01/30 03:04:46;;;;;;;22.05;19.73;;;6.80;99.90;;;;;;5056746;28;20048;-76
2024/01/30 03:07:12;;;;;;;22.77;19.70;;;6.80;99.90;;;;;;5067496;28;20044;-76
2024/01/30 03:09:38;;;;;;;23.83;19.48;;;6.80;99.90;;;;;;5068781;28;20318;-77
2024/01/30 03:12:04;;;;;;;21.40;19.17;;;6.80;99.90;;;;;;5086385;28;20040;-76
2024/01/30 03:14:31;;;;;;;22.27;19.95;;;6.80;99.90;;;;;;5088976;28;20399;-76
2024/01/30 03:16:57;;;;;;;22.00;19.80;;;6.80;99.90;;;;;;5078336;28;20059;-76
2024/01/30 03:19:23;;;;;;;21.27;19.08;;;6.70;99.90;;;;;;5056731;28;20044;-76
2024/01/30 03:21:49;;;;;;;22.23;19.80;;;6.80;99.90;;;;;;5083184;28;20398;-76
2024/01/30 03:24:14;;;;;;;21.60;19.40;;;6.80;99.90;;;;;;5066528;28;20066;-76
2024/01/30 03:26:40;;;;;;;21.67;19.38;;;6.80;99.90;;;;;;5061412;28;20702;-76
2024/01/30 03:29:06;;;;;;;21.92;19.67;;;6.70;99.90;;;;;;5081232;28;20652;-76
2024/01/30 03:31:32;;;;;;;22.52;19.83;;;6.80;99.90;;;;;;5063209;28;20047;-76
2024/01/30 03:33:58;;;;;;;21.58;19.33;;;6.80;99.90;;;;;;5075173;28;20174;-76
2024/01/30 03:36:23;;;;;;;21.77;19.55;;;6.80;99.90;;;;;;5063665;28;20075;-76
2024/01/30 03:38:49;;;;;;;23.65;19.80;;;6.90;99.90;;;;;;5084113;28;20096;-76
2024/01/30 03:41:14;;;;;;;22.02;19.83;;;6.80;99.90;;;;;;5087854;28;20084;-76
2024/01/30 03:43:41;;;;;;;23.65;20.98;;;6.80;99.90;;;;;;5062531;28;20078;-76
2024/01/30 03:46:06;;;;;;;25.02;22.33;;;6.80;99.90;;;;;;5075616;28;20094;-76
2024/01/30 03:48:32;;;;;;;28.27;25.30;;;6.80;99.90;;;;;;5082305;28;20463;-76
2024/01/30 03:50:58;;;;;;;28.63;25.85;;;7.00;99.90;;;;;;5058118;28;20046;-76
2024/01/30 03:53:23;;;;;;;29.25;26.23;;;6.90;99.90;;;;;;5065983;28;20044;-76
2024/01/30 03:55:49;;;;;;;28.80;25.80;;;6.90;99.90;;;;;;5065364;28;20044;-76
2024/01/30 03:58:14;;;;;;;28.52;25.73;;;6.90;99.90;;;;;;5068109;28;20063;-76
2024/01/30 04:00:40;;;;;;;29.73;27.00;;;6.90;99.90;;;;;;5080242;28;20059;-76
2024/01/30 04:03:06;;;;;;;32.13;28.98;;;6.90;99.90;;;;;;5063094;28;20490;-76
2024/01/30 04:05:32;;;;;;;32.92;29.67;;;6.90;99.90;;;;;;5064063;28;20052;-76
2024/01/30 04:07:58;;;;;;;31.48;28.38;;;6.90;99.90;;;;;;5060320;28;20037;-76
2024/01/30 04:10:24;;;;;;;30.45;27.50;;;6.90;99.90;;;;;;5064004;28;20119;-76
2024/01/30 04:12:51;;;;;;;27.35;24.75;;;6.90;99.90;;;;;;5058553;28;20053;-76
2024/01/30 04:15:17;;;;;;;25.27;22.58;;;6.80;99.90;;;;;;5064887;28;20048;-76
2024/01/30 04:17:44;;;;;;;24.38;21.88;;;6.90;99.90;;;;;;5055037;28;20098;-76
2024/01/30 04:20:18;;;;;;;24.40;21.83;;;6.90;99.90;;;;;;5063306;28;20035;-76
2024/01/30 04:22:45;;;;;;;23.17;20.73;;;6.90;99.90;;;;;;5054889;28;20098;-76
2024/01/30 04:25:14;;;;;;;22.85;20.45;;;6.90;99.90;;;;;;5057863;28;20052;-76
2024/01/30 04:27:40;;;;;;;24.13;19.98;;;6.90;99.90;;;;;;5060287;28;20500;-76
2024/01/30 04:30:06;;;;;;;23.98;21.38;;;6.90;99.90;;;;;;5057156;28;20048;-76
2024/01/30 04:32:32;;;;;;;21.58;19.35;;;6.90;99.90;;;;;;5060651;28;20383;-76
2024/01/30 04:34:58;;;;;;;23.20;20.90;;;6.90;99.90;;;;;;5057072;28;20729;-76
2024/01/30 04:37:24;;;;;;;23.33;20.98;;;6.90;99.90;;;;;;5054927;28;20075;-76
2024/01/30 04:39:50;;;;;;;23.73;21.20;;;6.90;99.90;;;;;;5055584;28;20190;-76
2024/01/30 04:42:16;;;;;;;26.55;23.75;;;6.90;99.90;;;;;;5053238;28;20160;-76
2024/01/30 04:44:41;;;;;;;28.20;25.30;;;6.90;99.90;;;;;;5055920;28;20045;-76
2024/01/30 04:47:08;;;;;;;27.63;24.48;;;6.90;99.90;;;;;;5060525;28;21077;-76
2024/01/30 04:49:34;;;;;;;28.25;24.63;;;6.90;99.90;;;;;;5062879;28;20072;-75
2024/01/30 04:52:00;;;;;;;23.95;21.60;;;6.90;99.90;;;;;;5050086;28;20105;-76
2024/01/30 04:54:26;;;;;;;23.48;20.98;;;6.70;99.90;;;;;;5063720;28;20543;-76
2024/01/30 04:56:51;;;;;;;22.90;20.10;;;6.90;99.90;;;;;;5054121;28;20048;-76
2024/01/30 04:59:17;;;;;;;22.75;20.45;;;6.80;99.90;;;;;;5061881;28;20072;-76
2024/01/30 05:01:43;;;;;;;23.42;20.98;;;6.80;99.90;;;;;;5060508;28;20040;-76
2024/01/30 05:04:09;;;;;;;24.48;22.08;;;6.90;99.90;;;;;;5078552;28;20411;-76
2024/01/30 05:06:34;;;;;;;26.30;23.50;;;6.90;99.90;;;;;;5058251;28;20146;-76
2024/01/30 05:09:00;;;;;;;28.13;25.10;;;6.80;99.90;;;;;;5074709;28;20109;-76
2024/01/30 05:11:25;;;;;;;25.48;22.95;;;6.80;99.90;;;;;;5075919;28;20040;-76
2024/01/30 05:13:51;;;;;;;23.80;21.27;;;6.80;99.90;;;;;;5075756;28;20052;-76
2024/01/30 05:16:17;;;;;;;25.23;21.73;;;6.80;99.90;;;;;;5059720;28;20193;-76
2024/01/30 05:18:43;;;;;;;23.98;21.50;;;6.80;99.90;;;;;;5055017;28;20052;-76
2024/01/30 05:21:10;;;;;;;24.30;21.15;;;6.90;99.90;;;;;;5077363;28;20265;-76
2024/01/30 05:23:35;;;;;;;25.17;22.58;;;6.80;99.90;;;;;;5059607;28;20097;-76
2024/01/30 05:26:01;;;;;;;39.42;35.33;;;6.80;99.90;;;;;;5075071;28;20102;-76
2024/01/30 05:28:27;;;;;;;43.17;38.50;;;6.90;99.90;;;;;;5057647;28;20039;-76
2024/01/30 05:30:53;;;;;;;44.03;39.55;;;6.90;99.90;;;;;;5061823;28;20048;-76
2024/01/30 05:33:18;;;;;;;38.13;34.13;;;6.90;99.90;;;;;;5080440;28;20387;-76
2024/01/30 05:35:44;;;;;;;37.67;33.72;;;6.90;99.90;;;;;;5054204;28;20043;-76
2024/01/30 05:38:11;;;;;;;42.83;38.53;;;7.00;99.90;;;;;;5077197;28;20044;-76
2024/01/30 05:40:36;;;;;;;45.78;41.25;;;7.00;99.90;;;;;;5077997;28;20049;-76
2024/01/30 05:43:02;;;;;;;48.05;43.40;;;7.00;99.90;;;;;;5059863;28;20307;-77
2024/01/30 05:45:28;;;;;;;49.70;44.90;;;7.00;99.90;;;;;;5057804;28;20039;-76
2024/01/30 05:47:54;;;;;;;31.13;27.80;;;7.00;99.90;;;;;;5075461;28;20044;-76
2024/01/30 05:50:20;;;;;;;24.63;22.13;;;7.00;99.90;;;;;;5076551;28;20480;-76
2024/01/30 05:52:45;;;;;;;23.33;20.85;;;7.10;99.90;;;;;;5076453;28;20047;-77
2024/01/30 05:55:15;;;;;;;24.58;22.02;;;7.00;99.90;;;;;;5056879;28;20048;-77
2024/01/30 05:57:40;;;;;;;24.60;22.10;;;7.10;99.90;;;;;;5063691;28;21024;-76
2024/01/30 06:00:08;;;;;;;28.05;25.25;;;7.00;99.90;;;;;;5056333;28;20052;-76
2024/01/30 06:02:34;;;;;;;31.25;27.92;;;7.00;99.90;;;;;;5055780;28;20072;-76
2024/01/30 06:04:59;;;;;;;35.92;32.13;;;7.00;99.90;;;;;;5080143;28;20052;-76
2024/01/30 06:07:25;;;;;;;37.95;34.03;;;7.10;99.90;;;;;;5059812;28;20431;-76
2024/01/30 06:09:51;;;;;;;35.92;32.17;;;7.10;99.90;;;;;;5062134;28;20131;-76
2024/01/30 06:12:16;;;;;;;34.38;30.88;;;7.10;99.90;;;;;;5060623;28;20532;-76
2024/01/30 06:14:42;;;;;;;32.33;29.08;;;7.10;99.90;;;;;;5075998;28;20274;-76
2024/01/30 06:17:08;;;;;;;30.70;25.42;;;7.20;99.90;;;;;;5076676;28;20591;-76
2024/01/30 06:19:34;;;;;;;25.83;23.08;;;7.20;99.90;;;;;;5076662;28;20048;-76
2024/01/30 06:22:00;;;;;;;24.92;22.27;;;7.10;99.90;;;;;;5081462;28;20074;-76
2024/01/30 06:24:27;;;;;;;25.83;21.95;;;7.10;99.90;;;;;;5063111;28;20040;-76
2024/01/30 06:26:53;;;;;;;26.50;23.65;;;7.10;99.90;;;;;;5081828;28;20556;-76
2024/01/30 06:29:18;;;;;;;25.85;23.17;;;7.10;99.90;;;;;;5056861;28;20036;-76
2024/01/30 06:31:44;;;;;;;29.60;26.48;;;7.20;99.90;;;;;;5087135;28;20380;-76
2024/01/30 06:34:11;;;;;;;28.35;25.35;;;7.10;99.90;;;;;;5061238;28;20479;-76
2024/01/30 06:36:37;;;;;;;25.60;23.05;;;7.10;99.90;;;;;;5081651;28;20040;-76
2024/01/30 06:39:03;;;;;;;24.80;21.50;;;7.10;99.90;;;;;;5081069;28;20405;-76
2024/01/30 06:41:29;;;;;;;24.38;20.58;;;7.10;99.90;;;;;;5084834;28;20429;-76
2024/01/30 06:43:55;;;;;;;23.40;19.73;;;7.20;99.90;;;;;;5061246;28;20051;-76
2024/01/30 06:46:21;;;;;;;23.13;20.60;;;7.10;99.90;;;;;;5069162;28;20052;-76
2024/01/30 06:48:47;;;;;;;21.63;19.33;;;7.20;99.90;;;;;;5061008;28;20059;-78
2024/01/30 06:51:12;;;;;;;22.70;20.40;;;7.20;99.90;;;;;;5065121;28;20042;-78
2024/01/30 06:53:38;;;;;;;20.75;11.43;;;7.10;99.90;;;;;;5075057;28;20043;-79
2024/01/30 06:56:05;;;;;;;25.30;20.05;;;7.10;99.90;;;;;;5084892;28;20040;-78
2024/01/30 06:58:32;;;;;;;22.23;19.77;;;7.10;99.90;;;;;;5064399;28;20101;-78
2024/01/30 07:00:58;;;;;;;22.92;20.38;;;7.10;99.90;;;;;;5066885;28;20036;-78
2024/01/30 07:03:24;;;;;;;22.77;20.08;;;7.10;99.90;;;;;;5069800;28;20048;-78
2024/01/30 07:05:49;;;;;;;24.08;20.45;;;7.30;99.90;;;;;;5068178;28;20044;-78
2024/01/30 07:08:17;;;;;;;23.63;19.42;;;7.20;99.90;;;;;;5059421;28;20047;-78
2024/01/30 07:10:43;;;;;;;25.30;19.20;;;7.30;99.90;;;;;;5067756;28;20097;-79
2024/01/30 07:13:10;;;;;;;20.55;17.65;;;7.30;99.90;;;;;;5068319;28;20044;-76
2024/01/30 07:15:36;;;;;;;20.23;17.83;;;7.50;99.90;;;;;;5067371;28;20075;-76
2024/01/30 07:18:02;;;;;;;20.77;18.10;;;7.40;99.90;;;;;;5061659;28;20094;-76
2024/01/30 07:20:30;;;;;;;20.08;18.05;;;7.40;99.90;;;;;;5067076;28;20036;-77
2024/01/30 07:22:56;;;;;;;23.67;20.58;;;7.50;99.90;;;;;;5064696;28;20054;-76
2024/01/30 07:25:26;;;;;;;26.88;21.63;;;7.50;99.90;;;;;;5080164;28;20550;-77
2024/01/30 07:27:52;;;;;;;28.10;25.15;;;7.60;99.90;;;;;;5064431;28;20161;-76
2024/01/30 07:30:18;;;;;;;30.67;26.05;;;7.70;99.90;;;;;;5065545;28;20052;-76
2024/01/30 07:32:44;;;;;;;28.17;25.27;;;7.70;99.90;;;;;;5061611;28;20453;-76
2024/01/30 07:35:11;;;;;;;29.58;26.67;;;7.70;99.90;;;;;;5065378;28;20068;-77
2024/01/30 07:37:37;;;;;;;26.42;23.52;;;7.80;99.90;;;;;;5059397;28;21542;-76
2024/01/30 07:40:03;;;;;;;26.38;23.65;;;7.70;99.90;;;;;;5075648;28;20131;-75
2024/01/30 07:42:29;;;;;;;22.42;20.02;;;7.80;99.90;;;;;;5063649;28;20700;-76
2024/01/30 07:44:54;;;;;;;20.05;17.40;;;7.80;99.90;;;;;;5080027;28;20040;-77
2024/01/30 07:47:20;;;;;;;20.48;16.85;;;7.80;99.90;;;;;;5061846;28;20047;-76
2024/01/30 07:49:46;;;;;;;19.23;17.20;;;7.90;99.90;;;;;;5087336;28;20068;-76
2024/01/30 07:52:11;;;;;;;19.17;17.08;;;7.90;99.90;;;;;;5066303;28;20033;-76
2024/01/30 07:54:50;;;;;;;21.15;17.42;;;7.90;99.90;;;;;;5061178;28;20082;-76
2024/01/30 07:57:16;;;;;;;19.08;16.23;;;7.90;99.90;;;;;;5065935;28;20050;-76
2024/01/30 07:59:46;;;;;;;18.67;16.30;;;7.90;99.90;;;;;;5065541;28;20068;-76
2024/01/30 08:02:13;;;;;;;20.05;15.88;;;7.90;99.90;;;;;;5061505;28;20036;-76
2024/01/30 08:04:38;;;;;;;18.70;16.70;;;7.90;99.90;;;;;;5071498;28;20052;-76
2024/01/30 08:07:04;;;;;;;18.77;16.60;;;8.00;99.90;;;;;;5064657;28;20051;-75
2024/01/30 08:09:30;;;;;;;22.15;17.23;;;8.10;99.90;;;;;;5059437;28;20119;-76
2024/01/30 08:11:56;;;;;;;17.27;15.43;;;8.00;99.90;;;;;;5065733;28;20057;-76
2024/01/30 08:14:22;;;;;;;17.48;15.63;;;8.00;99.90;;;;;;5067786;28;20036;-76
2024/01/30 08:16:48;;;;;;;17.85;15.60;;;8.10;99.90;;;;;;5066964;28;20036;-77
2024/01/30 08:19:15;;;;;;;17.45;15.63;;;8.10;99.90;;;;;;5062477;28;20044;-75
2024/01/30 08:21:40;;;;;;;17.00;15.20;;;8.10;99.90;;;;;;5060374;28;20046;-75
2024/01/30 08:24:07;;;;;;;18.00;15.68;;;8.10;99.90;;;;;;5059185;28;20480;-76
2024/01/30 08:26:33;;;;;;;17.25;14.95;;;8.10;99.90;;;;;;5061164;28;20051;-80
2024/01/30 08:28:59;;;;;;;16.67;14.88;;;8.20;99.90;;;;;;5082410;28;20123;-80
2024/01/30 08:31:24;;;;;;;17.70;14.65;;;8.20;99.90;;;;;;5065530;28;20131;-80
2024/01/30 08:33:50;;;;;;;18.17;14.90;;;8.30;99.90;;;;;;5086057;28;20048;-79
2024/01/30 08:36:17;;;;;;;17.85;15.20;;;8.30;99.90;;;;;;5073119;28;20083;-78
2024/01/30 08:38:43;;;;;;;16.80;15.07;;;8.30;99.90;;;;;;5071042;28;20099;-78
2024/01/30 08:41:09;;;;;;;17.35;14.88;;;8.40;99.90;;;;;;5083280;28;20044;-78
2024/01/30 08:43:34;;;;;;;18.33;15.70;;;8.40;99.90;;;;;;5088990;28;20054;-77
2024/01/30 08:46:00;;;;;;;16.75;14.32;;;8.50;99.90;;;;;;5078560;28;20044;-77
2024/01/30 08:48:26;;;;;;;16.23;14.52;;;8.50;99.90;;;;;;5080817;28;20048;-78
2024/01/30 08:50:52;;;;;;;17.60;15.68;;;8.60;99.90;;;;;;5069888;28;20101;-79
2024/01/30 08:53:18;;;;;;;17.55;14.48;;;8.60;99.90;;;;;;5085971;28;20454;-76
2024/01/30 08:55:44;;;;;;;16.85;14.40;;;8.70;99.90;;;;;;5086753;28;20086;-77
2024/01/30 08:58:10;;;;;;;15.38;13.63;;;8.70;99.90;;;;;;5070859;28;20066;-77
2024/01/30 09:00:36;;;;;;;16.05;14.35;;;8.70;99.90;;;;;;5058930;28;20495;-77
2024/01/30 09:03:01;;;;;;;16.75;14.60;;;8.70;99.90;;;;;;5081362;28;20675;-77
2024/01/30 09:05:27;;;;;;;16.05;14.05;;;8.80;99.90;;;;;;5067830;28;20069;-75
2024/01/30 09:07:52;;;;;;;16.40;14.02;;;8.80;99.90;;;;;;5078593;28;20046;-75
2024/01/30 09:10:20;;;;;;;17.00;14.18;;;8.90;99.90;;;;;;5055431;28;20590;-76
2024/01/30 09:12:46;;;;;;;;;;;8.90;99.90;;;;;;5052622;28;20085;-76
2024/01/30 09:15:11;;;;;;;16.65;13.85;;;8.90;99.90;;;;;;5048763;28;19924;-77
2024/01/30 09:17:37;;;;;;;17.98;14.00;;;9.00;99.90;;;;;;5060131;28;20032;-77
2024/01/30 09:20:03;;;;;;;16.63;14.15;;;9.00;99.90;;;;;;5062305;28;20483;-77
2024/01/30 09:22:29;;;;;;;15.32;13.48;;;9.10;99.90;;;;;;5084666;28;20081;-77
2024/01/30 09:24:54;;;;;;;16.00;13.93;;;9.10;99.90;;;;;;5079635;28;20047;-77
2024/01/30 09:27:20;;;;;;;15.40;13.63;;;9.30;99.90;;;;;;5079980;28;20032;-77
2024/01/30 09:29:45;;;;;;;15.40;13.23;;;9.20;99.90;;;;;;5071775;28;20075;-79
2024/01/30 09:32:11;;;;;;;16.20;13.55;;;9.20;99.90;;;;;;5065960;28;20070;-80
2024/01/30 09:34:37;;;;;;;16.85;13.93;;;9.30;99.90;;;;;;5068376;28;20130;-78
2024/01/30 09:37:02;;;;;;;15.35;13.18;;;9.30;99.90;;;;;;5060131;28;20055;-79
2024/01/30 09:39:28;;;;;;;15.40;13.15;;;9.40;99.90;;;;;;5085526;28;20568;-78
2024/01/30 09:42:11;;;;;;;18.40;14.55;;;9.40;99.90;;;;;;5084631;28;20036;-78
2024/01/30 09:44:38;;;;;;;16.10;13.63;;;9.40;99.90;;;;;;5056718;28;20044;-76
2024/01/30 09:47:05;;;;;;;16.10;13.70;;;9.40;99.90;;;;;;5082784;28;20479;-75
2024/01/30 09:49:35;;;;;;;;;;;9.40;99.90;;;;;;5086649;28;20302;-77
2024/01/30 09:52:05;;;;;;;14.48;12.60;;;9.40;99.90;;;;;;5071065;28;19926;-78
2024/01/30 09:54:31;;;;;;;15.02;13.50;;;9.50;99.90;;;;;;5066690;28;20101;-78
2024/01/30 09:56:57;;;;;;;14.65;12.98;;;9.50;99.90;;;;;;5080124;28;20519;-77
2024/01/30 09:59:23;;;;;;;15.40;13.27;;;9.60;99.90;;;;;;5048170;28;20055;-78
2024/01/30 10:01:51;;;;;;;16.48;14.13;;;9.60;99.90;;;;;;5075964;28;20127;-78
2024/01/30 10:04:16;;;;;;;18.92;14.07;;;9.70;99.90;;;;;;5054965;28;20058;-78
2024/01/30 10:06:42;;;;;;;15.00;13.40;;;9.70;99.90;;;;;;5057230;28;20044;-78
2024/01/30 10:09:11;;;;;;;14.77;13.27;;;9.80;99.90;;;;;;5051338;28;20507;-78
2024/01/30 10:11:36;;;;;;;13.88;12.35;;;9.80;99.90;;;;;;5079929;28;21085;-78
2024/01/30 10:14:02;;;;;;;15.13;13.02;;;9.80;99.90;;;;;;5051884;28;20102;-78
2024/01/30 10:16:28;;;;;;;18.92;13.48;;;9.80;99.90;;;;;;5082416;28;20475;-78
2024/01/30 10:18:53;;;;;;;15.55;12.98;;;9.80;99.90;;;;;;5059553;28;20143;-78
2024/01/30 10:21:19;;;;;;;18.17;12.80;;;9.80;99.90;;;;;;5073740;28;20036;-78
2024/01/30 10:23:45;;;;;;;14.68;12.50;;;9.80;99.90;;;;;;5078311;28;20051;-78
2024/01/30 10:26:11;;;;;;;15.32;12.77;;;9.80;99.90;;;;;;5075272;28;20032;-78
2024/01/30 10:28:37;;;;;;;15.77;13.13;;;9.80;99.90;;;;;;5075198;28;20071;-78
2024/01/30 10:31:06;;;;;;;15.77;12.70;;;9.90;99.90;;;;;;5062488;28;20048;-78
2024/01/30 10:33:32;;;;;;;17.10;12.98;;;9.90;99.90;;;;;;5060592;28;20075;-79
2024/01/30 10:36:02;;;;;;;16.35;13.35;;;9.90;99.90;;;;;;5060518;28;20072;-78
2024/01/30 10:38:32;;;;;;;15.60;12.63;;;10.00;99.90;;;;;;5075822;28;20050;-80
2024/01/30 10:40:59;;;;;;;14.75;12.68;;;10.00;99.90;;;;;;5068710;28;20040;-79
2024/01/30 10:43:35;;;;;;;14.20;12.70;;;9.90;99.90;;;;;;5082816;28;20044;-77
2024/01/30 10:46:21;;;;;;;16.42;13.30;;;10.10;99.90;;;;;;5080175;28;20052;-78
2024/01/30 10:48:56;;;;;;;14.10;12.38;;;10.10;99.90;;;;;;5067422;28;20056;-79
2024/01/30 10:51:22;;;;;;;16.02;12.90;;;10.20;99.90;;;;;;5088423;28;20040;-78
2024/01/30 10:53:49;;;;;;;16.90;13.07;;;10.20;99.90;;;;;;5065353;28;20515;-77
2024/01/30 10:56:16;;;;;;;17.80;13.40;;;10.30;99.90;;;;;;5063008;28;20036;-77
2024/01/30 10:58:42;;;;;;;16.20;13.45;;;10.20;99.90;;;;;;5066863;28;20230;-77
2024/01/30 11:01:09;;;;;;;15.52;12.52;;;10.20;99.90;;;;;;5077925;28;20051;-77
2024/01/30 11:03:36;;;;;;;15.35;12.70;;;10.30;99.90;;;;;;5052216;28;20061;-77
2024/01/30 11:06:02;;;;;;;16.67;13.23;;;10.20;99.90;;;;;;5077337;28;20109;-77
2024/01/30 11:08:28;;;;;;;18.67;13.93;;;10.30;99.90;;;;;;5074494;28;20131;-77
2024/01/30 11:10:58;;;;;;;14.02;12.63;;;10.30;99.90;;;;;;5082307;28;20044;-77
2024/01/30 11:13:30;;;;;;;15.63;12.52;;;10.30;99.90;;;;;;5052847;28;20036;-77
2024/01/30 11:16:04;;;;;;;15.77;13.15;;;10.40;99.90;;;;;;5061810;28;20135;-77
2024/01/30 11:18:30;;;;;;;18.73;13.65;;;10.40;99.90;;;;;;5077379;28;20045;-77
2024/01/30 11:21:03;;;;;;;15.05;12.82;;;10.40;99.90;;;;;;5074515;28;20036;-78
2024/01/30 11:23:30;;;;;;;17.23;13.35;;;10.40;99.90;;;;;;5051797;28;20071;-77
2024/01/30 11:25:57;;;;;;;15.65;13.00;;;10.40;99.90;;;;;;5059387;28;20045;-77
2024/01/30 11:28:23;;;;;;;17.35;13.20;;;10.40;99.90;;;;;;5072980;28;20037;-77
2024/01/30 11:30:52;;;;;;;15.95;12.82;;;10.40;99.90;;;;;;5067039;28;20050;-77
2024/01/30 11:33:30;;;;;;;16.40;13.65;;;10.40;99.90;;;;;;5067575;28;20071;-77
2024/01/30 11:35:59;;;;;;;15.95;13.43;;;10.50;99.90;;;;;;5056966;28;20151;-77
2024/01/30 11:38:26;;;;;;;18.02;13.40;;;10.40;99.90;;;;;;5065225;28;20044;-77
2024/01/30 11:40:52;;;;;;;16.05;13.18;;;10.40;99.90;;;;;;5082059;28;20438;-77
2024/01/30 11:43:19;;;;;;;17.98;13.48;;;10.40;99.90;;;;;;5057473;28;20052;-77
2024/01/30 11:45:45;;;;;;;17.55;13.25;;;10.40;99.90;;;;;;5050839;28;20052;-77
2024/01/30 11:48:12;;;;;;;17.88;14.00;;;10.40;99.90;;;;;;5062773;28;20072;-77
2024/01/30 11:50:39;;;;;;;16.38;14.30;;;10.50;99.90;;;;;;5079531;28;20380;-80
2024/01/30 11:53:05;;;;;;;19.58;15.75;;;10.50;99.90;;;;;;5054477;28;20426;-79
2024/01/30 11:55:31;;;;;;;17.38;15.57;;;10.50;99.90;;;;;;5086060;28;20039;-78
2024/01/30 11:57:58;;;;;;;18.42;16.42;;;10.50;99.90;;;;;;5085211;28;20071;-78
2024/01/30 12:00:24;;;;;;;22.65;16.92;;;10.60;99.90;;;;;;5076368;28;20048;-78
2024/01/30 12:02:58;;;;;;;21.85;16.77;;;10.60;99.90;;;;;;5060053;28;20063;-77
2024/01/30 12:05:24;;;;;;;19.55;15.45;;;10.70;99.90;;;;;;5050008;28;20060;-79
2024/01/30 12:07:50;;;;;;;18.15;15.30;;;10.70;99.90;;;;;;5058569;28;20087;-79
2024/01/30 12:10:17;;;;;;;18.75;14.43;;;10.70;99.90;;;;;;5061297;28;20104;-75
2024/01/30 12:12:49;;;;;;;17.30;15.55;;;10.70;99.90;;;;;;5061133;28;20056;-78
2024/01/30 12:15:15;;;;;;;18.75;15.57;;;10.70;99.90;;;;;;5077250;28;20047;-78
2024/01/30 12:17:41;;;;;;;18.00;15.00;;;10.70;99.90;;;;;;5077672;28;20609;-77
2024/01/30 12:20:08;;;;;;;18.67;14.52;;;10.80;99.90;;;;;;5058658;28;20052;-78
2024/01/30 12:22:40;;;;;;;19.00;15.23;;;10.80;99.90;;;;;;5061315;28;20048;-80
2024/01/30 12:25:11;;;;;;;19.00;13.77;;;10.90;99.90;;;;;;5068150;28;20056;-79
2024/01/30 12:27:37;;;;;;;18.38;13.60;;;10.90;99.90;;;;;;5064863;28;20494;-79
2024/01/30 12:30:07;;;;;;;14.50;13.00;;;10.80;99.90;;;;;;5065623;28;20531;-78
2024/01/30 12:32:36;;;;;;;16.20;13.13;;;10.90;99.90;;;;;;5059764;28;20037;-79